Vestavia Hills, AL

10:21 PM CST on December 20, 2014 (GMT -0600)
Thorn Berry | Change Station
CLOSE
Current Station
Personal Weather Station
Location: Birmingham, AL
Elevation: 547 ft
Nearby Weather Stations

Elev 547 ft 33.40 °N, 86.72 °W | Updated 4 minutes ago

Partly Cloudy
Partly Cloudy
40.1 °F
Feels Like 40 °F
N
0.0
Wind Variable Wind from NE
Gusts 0.0 mph

Today
High -- | Low -- °F
--% Chance of Precip.
Yesterday
High -- | Low -- °F
Precip. -- in
6:46 AM 4:42 PM
Waning Crescent, 1% visible
Pressure 30.23 in
Visibility 9.0 miles
Clouds Few 3300 ft
Windchill 40 °F
Dew Point 37 °F
Humidity 90%
Rainfall 0.04 in
Snow Depth Not available.
UV 0 out of 12
Pollen .40 out of 12
Air Quality Not available.
Flu Activity Not available.
METAR KBHM 210353Z 00000KT 9SM FEW033 01/00 A3022 RMK AO2 SLP237 T00110000

More Conditions Fewer Conditions

Pressure 30.23 in
Visibility 9.0 miles
Clouds Few 3300 ft
Windchill 40 °F
Dew Point 37 °F
Humidity 90%
Rainfall 0.04 in
Snow Depth Not available.
UV 0 out of 12
Pollen .40 out of 12
Air Quality Not available.
Flu Activity Not available.
METAR KBHM 210353Z 00000KT 9SM FEW033 01/00 A3022 RMK AO2 SLP237 T00110000

More Conditions Fewer Conditions

10-Day Weather Forecast

Almanac

Astronomy

Dec. 20, 2014 Rise Set
Actual Time
Civil Twilight
Nautical Twilight
Astronomical Twilight
Moon
Length of Visible Light
Length of Day
Tomorrow will be .
, % of the Moon is Illuminated

Today's Extremes

State Highs State Lows

Community

WunderPhotos

Upload Photos

1,779,357 photos uploaded!

WunderBlogs® & News

Nearby

Air Quality

  Air Quality AQ Index Pollutant
Not available.

Snow Depth

Station Depth Elevation

Earthquake Activity

City Distance Mag. Time & Date
Minimum magnitude displayed is 2.5.

Coastal Water Temperatures

Place Temperature

Nearby Weather Stations